createdAt,value
2023-05-22T00:01:45.007Z,4.70
2023-05-22T00:04:13.571Z,4.45
2023-05-22T00:06:44.646Z,5.10
2023-05-22T00:09:12.091Z,5.15
2023-05-22T00:11:39.952Z,4.65
2023-05-22T00:14:07.342Z,3.35
2023-05-22T00:16:35.026Z,5.75
2023-05-22T00:19:02.510Z,4.60
2023-05-22T00:21:34.813Z,3.50
2023-05-22T00:24:03.126Z,4.40
2023-05-22T00:26:30.904Z,4.07
2023-05-22T00:28:58.370Z,5.05
2023-05-22T00:31:26.277Z,4.82
2023-05-22T00:33:53.670Z,4.72
2023-05-22T00:36:21.345Z,3.55
2023-05-22T00:38:48.641Z,3.78
2023-05-22T00:41:16.653Z,5.03
2023-05-22T00:43:45.695Z,5.13
2023-05-22T00:46:13.415Z,3.92
2023-05-22T00:48:40.706Z,4.22
2023-05-22T00:51:08.931Z,5.05
2023-05-22T00:53:37.252Z,3.70
2023-05-22T00:56:07.253Z,3.95
2023-05-22T00:58:34.627Z,4.30
2023-05-22T01:01:02.383Z,5.75
2023-05-22T01:03:30.138Z,4.75
2023-05-22T01:05:57.955Z,5.65
2023-05-22T01:08:25.418Z,4.50
2023-05-22T01:11:04.493Z,4.00
2023-05-22T01:14:21.203Z,6.53
2023-05-22T01:17:08.865Z,3.70
2023-05-22T01:20:01.601Z,4.03
2023-05-22T01:22:44.098Z,5.63
2023-05-22T01:25:49.430Z,3.10
2023-05-22T01:28:53.755Z,4.03
2023-05-22T01:31:27.576Z,3.20
2023-05-22T01:33:58.851Z,3.35
2023-05-22T01:36:31.944Z,5.85
2023-05-22T01:39:01.693Z,4.50
2023-05-22T01:41:31.048Z,3.75
2023-05-22T01:44:00.412Z,4.65
2023-05-22T01:46:31.732Z,4.40
2023-05-22T01:48:59.950Z,4.00
2023-05-22T01:52:03.797Z,5.47
2023-05-22T01:54:37.974Z,4.20
2023-05-22T01:57:19.392Z,3.80
2023-05-22T02:00:12.003Z,4.93
2023-05-22T02:02:43.837Z,3.33
2023-05-22T02:05:13.806Z,6.63
2023-05-22T02:07:43.527Z,2.90
2023-05-22T02:10:14.603Z,5.15
2023-05-22T02:12:42.777Z,5.53
2023-05-22T02:15:10.800Z,4.88
2023-05-22T02:17:42.691Z,4.18
2023-05-22T02:20:15.840Z,5.07
2023-05-22T02:22:44.751Z,4.68
2023-05-22T02:25:17.734Z,5.65
2023-05-22T02:27:48.017Z,4.20
2023-05-22T02:30:16.062Z,3.83
2023-05-22T02:32:43.928Z,4.07
2023-05-22T02:35:11.989Z,7.40
2023-05-22T02:37:39.597Z,4.63
2023-05-22T02:40:08.479Z,2.90
2023-05-22T02:42:36.316Z,4.72
2023-05-22T02:45:04.900Z,3.90
2023-05-22T02:47:32.228Z,3.60
2023-05-22T02:49:59.776Z,3.83
2023-05-22T02:52:28.543Z,4.68
2023-05-22T02:54:56.283Z,4.15
2023-05-22T02:57:24.045Z,4.72
2023-05-22T02:59:52.730Z,4.80
2023-05-22T03:02:20.203Z,4.05
2023-05-22T03:04:47.959Z,6.25
2023-05-22T03:07:15.369Z,5.70
2023-05-22T03:09:43.138Z,6.35
2023-05-22T03:12:10.674Z,7.47
2023-05-22T03:14:38.303Z,4.00
2023-05-22T03:17:05.941Z,5.32
2023-05-22T03:19:33.564Z,4.05
2023-05-22T03:22:01.317Z,8.38
2023-05-22T03:24:29.258Z,4.25
2023-05-22T03:26:56.674Z,4.70
2023-05-22T03:29:24.313Z,7.10
2023-05-22T03:31:51.631Z,4.43
2023-05-22T03:34:19.273Z,5.22
2023-05-22T03:36:46.652Z,5.88
2023-05-22T03:39:14.305Z,6.70
2023-05-22T03:41:41.883Z,7.50
2023-05-22T03:44:09.608Z,6.10
2023-05-22T03:46:36.963Z,6.72
2023-05-22T03:49:04.599Z,5.82
2023-05-22T03:51:31.975Z,4.68
2023-05-22T03:53:59.682Z,4.93
2023-05-22T03:56:27.201Z,5.05
2023-05-22T03:58:54.852Z,8.70
2023-05-22T04:01:22.306Z,4.72
2023-05-22T04:03:49.978Z,5.13
2023-05-22T04:06:17.739Z,5.55
2023-05-22T04:08:45.367Z,7.43
2023-05-22T04:11:15.843Z,5.78
2023-05-22T04:13:43.910Z,6.05
2023-05-22T04:16:11.341Z,5.68
2023-05-22T04:18:39.004Z,5.97
2023-05-22T04:21:08.245Z,5.90
2023-05-22T04:23:36.266Z,6.18
2023-05-22T04:26:03.788Z,7.40
2023-05-22T04:28:31.452Z,7.25
2023-05-22T04:30:58.891Z,3.60
2023-05-22T04:33:26.615Z,5.10
2023-05-22T04:35:54.676Z,4.40
2023-05-22T04:38:22.274Z,5.90
2023-05-22T04:40:50.357Z,8.90
2023-05-22T04:43:18.900Z,11.30
2023-05-22T04:45:46.461Z,4.80
2023-05-22T04:48:14.128Z,5.65
2023-05-22T04:50:41.716Z,5.30
2023-05-22T04:53:09.647Z,5.38
2023-05-22T04:55:37.086Z,6.88
2023-05-22T04:58:06.009Z,4.60
2023-05-22T05:00:33.471Z,5.30
2023-05-22T05:03:01.527Z,6.40
2023-05-22T05:05:29.062Z,6.10
2023-05-22T05:07:56.748Z,7.43
2023-05-22T05:10:24.223Z,6.35
2023-05-22T05:12:51.920Z,4.85
2023-05-22T05:15:20.081Z,7.05
2023-05-22T05:17:47.731Z,9.18
2023-05-22T05:20:15.156Z,4.80
2023-05-22T05:22:44.216Z,7.43
2023-05-22T05:25:12.066Z,5.03
2023-05-22T05:27:40.170Z,10.38
2023-05-22T05:30:08.816Z,5.03
2023-05-22T05:32:36.952Z,15.40
2023-05-22T05:35:04.740Z,8.25
2023-05-22T05:37:32.343Z,5.60
2023-05-22T05:39:59.698Z,3.78
2023-05-22T05:42:27.334Z,3.78
2023-05-22T05:44:54.660Z,5.20
2023-05-22T05:47:24.170Z,6.57
2023-05-22T05:49:51.801Z,4.50
2023-05-22T05:52:19.449Z,5.57
2023-05-22T05:54:48.199Z,5.05
2023-05-22T05:57:16.107Z,5.47
2023-05-22T05:59:43.554Z,5.72
2023-05-22T06:02:11.247Z,6.63
2023-05-22T06:04:38.797Z,5.35
2023-05-22T06:07:06.640Z,7.13
2023-05-22T06:09:34.026Z,12.40
2023-05-22T06:12:01.601Z,14.13
2023-05-22T06:14:29.078Z,5.20
2023-05-22T06:16:56.766Z,7.72
2023-05-22T06:19:24.291Z,4.28
2023-05-22T06:21:52.300Z,5.47
2023-05-22T06:24:19.721Z,5.07
2023-05-22T06:26:47.328Z,6.20
2023-05-22T06:29:14.642Z,6.35
2023-05-22T06:31:42.272Z,4.75
2023-05-22T06:34:09.742Z,5.63
2023-05-22T06:36:37.589Z,3.65
2023-05-22T06:39:05.106Z,6.05
2023-05-22T06:41:33.756Z,5.03
2023-05-22T06:44:02.423Z,7.13
2023-05-22T06:46:30.355Z,4.53
2023-05-22T06:48:57.897Z,5.68
2023-05-22T06:51:26.342Z,8.10
2023-05-22T06:53:53.726Z,5.88
2023-05-22T06:56:22.880Z,5.05
2023-05-22T06:58:51.143Z,3.25
2023-05-22T07:01:19.272Z,3.92
2023-05-22T07:03:47.287Z,4.68
2023-05-22T07:06:15.694Z,4.47
2023-05-22T07:08:43.134Z,3.42
2023-05-22T07:11:10.752Z,5.65
2023-05-22T07:13:38.110Z,8.70
2023-05-22T07:16:06.660Z,3.60
2023-05-22T07:18:34.207Z,4.00
2023-05-22T07:21:01.949Z,4.38
2023-05-22T07:23:29.313Z,3.83
2023-05-22T07:25:57.311Z,4.43
2023-05-22T07:28:24.645Z,3.67
2023-05-22T07:30:52.289Z,3.22
2023-05-22T07:33:19.576Z,4.45
2023-05-22T07:35:47.478Z,11.75
2023-05-22T07:38:14.873Z,4.20
2023-05-22T07:40:42.612Z,4.82
2023-05-22T07:43:10.122Z,5.15
2023-05-22T07:45:39.636Z,4.82
2023-05-22T07:48:07.412Z,3.38
2023-05-22T07:50:35.469Z,3.72
2023-05-22T07:53:04.900Z,6.05
2023-05-22T07:55:32.802Z,4.70
2023-05-22T07:58:00.086Z,6.22
2023-05-22T08:00:27.898Z,6.03
2023-05-22T08:02:55.430Z,10.10
2023-05-22T08:05:23.476Z,2.50
2023-05-22T08:07:50.991Z,3.40
2023-05-22T08:10:19.946Z,3.97
2023-05-22T08:12:47.401Z,4.13
2023-05-22T08:15:15.033Z,3.35
2023-05-22T08:17:42.464Z,2.85
2023-05-22T08:20:11.799Z,6.55
2023-05-22T08:22:40.613Z,2.95
2023-05-22T08:25:09.838Z,3.85
2023-05-22T08:27:37.272Z,3.05
2023-05-22T08:30:05.696Z,3.28
2023-05-22T08:32:33.288Z,4.85
2023-05-22T08:35:01.759Z,4.25
2023-05-22T08:37:29.376Z,5.70
2023-05-22T08:39:57.114Z,10.80
2023-05-22T08:42:25.238Z,5.63
2023-05-22T08:44:55.567Z,3.20
2023-05-22T08:47:26.937Z,9.90
2023-05-22T08:49:59.077Z,3.97
2023-05-22T08:52:42.062Z,4.82
2023-05-22T08:55:10.634Z,3.35
2023-05-22T08:57:38.938Z,3.38
2023-05-22T09:00:09.591Z,5.90
2023-05-22T09:02:42.567Z,7.40
2023-05-22T09:05:10.462Z,8.68
2023-05-22T09:07:39.299Z,3.40
2023-05-22T09:10:08.400Z,4.85
2023-05-22T09:12:36.085Z,3.10
2023-05-22T09:15:11.332Z,4.70
2023-05-22T09:17:41.889Z,5.35
2023-05-22T09:20:13.467Z,2.55
2023-05-22T09:22:41.008Z,4.60
2023-05-22T09:25:09.141Z,2.92
2023-05-22T09:27:36.542Z,4.55
2023-05-22T09:30:04.649Z,14.23
2023-05-22T09:32:32.424Z,3.30
2023-05-22T09:35:04.920Z,4.68
2023-05-22T09:37:36.809Z,3.28
2023-05-22T09:40:11.770Z,4.07
2023-05-22T09:42:39.096Z,5.47
2023-05-22T09:45:08.472Z,5.72
2023-05-22T09:47:36.533Z,6.38
2023-05-22T09:50:07.427Z,3.40
2023-05-22T09:52:37.332Z,8.13
2023-05-22T09:55:09.543Z,4.38
2023-05-22T09:57:48.362Z,2.72
2023-05-22T10:00:19.918Z,2.38
2023-05-22T10:02:56.045Z,3.63
2023-05-22T10:05:31.571Z,4.53
2023-05-22T10:08:10.845Z,4.03
2023-05-22T10:10:41.176Z,4.05
2023-05-22T10:13:09.356Z,4.10
2023-05-22T10:15:38.643Z,2.63
2023-05-22T10:18:06.537Z,2.42
2023-05-22T10:20:35.016Z,2.83
2023-05-22T10:23:04.209Z,4.13
2023-05-22T10:25:32.571Z,4.03
2023-05-22T10:28:02.353Z,3.55
2023-05-22T10:30:40.553Z,3.38
2023-05-22T10:33:16.971Z,3.90
2023-05-22T10:36:07.723Z,2.67
2023-05-22T10:39:26.333Z,2.33
2023-05-22T10:41:54.253Z,2.30
2023-05-22T10:44:22.861Z,5.43
2023-05-22T10:46:50.832Z,5.82
2023-05-22T10:49:24.296Z,3.38
2023-05-22T10:51:58.391Z,4.65
2023-05-22T10:54:43.804Z,4.00
2023-05-22T10:57:17.357Z,4.65
2023-05-22T10:59:48.109Z,5.22
2023-05-22T11:02:43.693Z,2.42
2023-05-22T11:05:22.475Z,4.88
2023-05-22T11:07:50.587Z,2.28
2023-05-22T11:10:47.936Z,5.72
2023-05-22T11:13:17.957Z,3.88
2023-05-22T11:15:49.143Z,2.88
2023-05-22T11:18:17.664Z,2.97
2023-05-22T11:20:47.209Z,2.63
2023-05-22T11:23:15.390Z,13.00
2023-05-22T11:25:42.866Z,5.40
2023-05-22T11:28:11.934Z,3.28
2023-05-22T11:30:41.789Z,2.83
2023-05-22T11:33:09.917Z,3.47
2023-05-22T11:35:38.791Z,3.75
2023-05-22T11:38:07.280Z,3.47
2023-05-22T11:40:34.951Z,5.68
2023-05-22T11:43:04.104Z,2.40
2023-05-22T11:45:31.696Z,4.60
2023-05-22T11:47:59.169Z,3.22
2023-05-22T11:50:41.086Z,2.97
2023-05-22T11:53:09.696Z,6.32
2023-05-22T11:55:37.341Z,2.75
2023-05-22T11:58:04.681Z,3.45
2023-05-22T12:00:32.591Z,6.85
2023-05-22T12:03:00.074Z,10.00
2023-05-22T12:05:27.842Z,10.50
2023-05-22T12:07:55.376Z,4.75
2023-05-22T12:10:23.072Z,3.42
2023-05-22T12:12:50.440Z,4.40
2023-05-22T12:15:21.320Z,4.18
2023-05-22T12:17:48.771Z,3.83
2023-05-22T12:20:16.492Z,3.33
2023-05-22T12:22:44.621Z,6.15
2023-05-22T12:25:17.513Z,4.28
2023-05-22T12:27:46.073Z,5.25
2023-05-22T12:30:15.156Z,5.75
2023-05-22T12:32:49.706Z,6.05
2023-05-22T12:35:19.152Z,4.65
2023-05-22T12:37:51.885Z,3.50
2023-05-22T12:40:19.900Z,3.20
2023-05-22T12:42:48.960Z,2.50
2023-05-22T12:45:18.131Z,4.50
2023-05-22T12:47:45.978Z,4.40
2023-05-22T12:50:13.796Z,4.88
2023-05-22T12:52:41.163Z,3.95
2023-05-22T12:55:11.224Z,3.72
2023-05-22T12:57:38.651Z,15.52
2023-05-22T13:00:07.346Z,4.97
2023-05-22T13:02:34.828Z,3.30
2023-05-22T13:05:02.673Z,2.80
2023-05-22T13:07:30.088Z,2.70
2023-05-22T13:09:57.718Z,2.72
2023-05-22T13:12:27.262Z,2.92
2023-05-22T13:14:54.848Z,3.05
2023-05-22T13:17:22.300Z,3.90
2023-05-22T13:19:50.026Z,5.85
2023-05-22T13:22:17.782Z,6.78
2023-05-22T13:24:45.400Z,4.80
2023-05-22T13:27:12.781Z,4.32
2023-05-22T13:29:40.680Z,2.85
2023-05-22T13:32:08.040Z,3.15
2023-05-22T13:34:35.779Z,4.80
2023-05-22T13:37:03.247Z,4.22
2023-05-22T13:39:31.213Z,4.60
2023-05-22T13:41:58.589Z,4.22
2023-05-22T13:44:26.643Z,3.28
2023-05-22T13:46:54.347Z,3.88
2023-05-22T13:49:22.060Z,4.82
2023-05-22T13:51:49.326Z,4.10
2023-05-22T13:54:16.990Z,3.35
2023-05-22T13:56:44.517Z,3.63
2023-05-22T13:59:12.130Z,3.72
2023-05-22T14:01:39.713Z,6.45
2023-05-22T14:04:07.436Z,3.90
2023-05-22T14:06:34.846Z,3.60
2023-05-22T14:09:02.901Z,3.72
2023-05-22T14:11:30.465Z,5.85
2023-05-22T14:13:58.111Z,3.72
2023-05-22T14:16:25.557Z,4.38
2023-05-22T14:18:53.410Z,3.55
2023-05-22T14:21:21.027Z,3.85
2023-05-22T14:23:48.676Z,3.50
2023-05-22T14:26:16.107Z,3.13
2023-05-22T14:28:43.893Z,4.25
2023-05-22T14:31:11.291Z,3.90
2023-05-22T14:33:38.862Z,6.70
2023-05-22T14:36:06.543Z,7.70
2023-05-22T14:38:34.518Z,3.83
2023-05-22T14:41:02.852Z,2.92
2023-05-22T14:43:30.636Z,4.80
2023-05-22T14:45:59.292Z,5.25
2023-05-22T14:48:29.420Z,4.25
2023-05-22T14:50:56.930Z,3.90
2023-05-22T14:53:24.808Z,2.65
2023-05-22T14:55:52.085Z,4.57
2023-05-22T14:58:20.631Z,3.58
2023-05-22T15:00:47.906Z,3.28
2023-05-22T15:03:15.536Z,5.30
2023-05-22T15:05:42.806Z,6.30
2023-05-22T15:08:10.488Z,2.58
2023-05-22T15:10:37.819Z,3.67
2023-05-22T15:13:05.742Z,4.80
2023-05-22T15:15:33.328Z,3.80
2023-05-22T15:18:02.913Z,3.15
2023-05-22T15:20:31.202Z,2.45
2023-05-22T15:22:59.855Z,4.65
2023-05-22T15:25:27.460Z,2.90
2023-05-22T15:27:55.086Z,4.65
2023-05-22T15:30:23.706Z,6.63
2023-05-22T15:32:51.487Z,4.28
2023-05-22T15:35:18.832Z,4.10
2023-05-22T15:37:46.593Z,4.55
2023-05-22T15:40:17.433Z,4.22
2023-05-22T15:42:45.193Z,5.85
2023-05-22T15:45:12.603Z,5.20
2023-05-22T15:47:43.072Z,3.97
2023-05-22T15:50:11.122Z,5.47
2023-05-22T15:52:39.081Z,15.65
2023-05-22T15:55:06.936Z,6.40
2023-05-22T15:57:34.498Z,6.00
2023-05-22T16:00:01.895Z,10.38
2023-05-22T16:02:29.491Z,5.07
2023-05-22T16:04:56.916Z,5.35
2023-05-22T16:07:24.579Z,6.32
2023-05-22T16:09:52.002Z,3.58
2023-05-22T16:12:19.662Z,6.30
2023-05-22T16:14:47.009Z,3.88
2023-05-22T16:17:14.587Z,5.00
2023-05-22T16:19:42.192Z,5.28
2023-05-22T16:22:09.928Z,4.40
2023-05-22T16:24:37.278Z,5.63
2023-05-22T16:27:05.584Z,3.53
2023-05-22T16:29:33.076Z,11.25
2023-05-22T16:32:00.841Z,13.20
2023-05-22T16:34:29.821Z,5.03
2023-05-22T16:36:57.452Z,5.13
2023-05-22T16:39:27.240Z,3.80
2023-05-22T16:41:54.840Z,4.43
2023-05-22T16:44:22.150Z,4.93
2023-05-22T16:46:50.011Z,4.38
2023-05-22T16:49:17.404Z,6.30
2023-05-22T16:51:45.030Z,3.45
2023-05-22T16:54:12.507Z,4.72
2023-05-22T16:56:40.079Z,7.10
2023-05-22T16:59:07.383Z,6.55
2023-05-22T17:01:35.045Z,3.83
2023-05-22T17:04:02.342Z,3.08
2023-05-22T17:06:30.135Z,4.50
2023-05-22T17:08:57.884Z,3.22
2023-05-22T17:11:26.435Z,6.00
2023-05-22T17:13:53.856Z,4.75
2023-05-22T17:16:21.467Z,4.00
2023-05-22T17:18:48.820Z,4.82
2023-05-22T17:21:17.563Z,4.05
2023-05-22T17:23:44.817Z,5.75
2023-05-22T17:26:14.378Z,4.63
2023-05-22T17:28:41.643Z,4.78
2023-05-22T17:31:09.341Z,7.43
2023-05-22T17:33:36.631Z,3.83
2023-05-22T17:36:04.601Z,5.50
2023-05-22T17:38:31.976Z,3.97
2023-05-22T17:41:00.900Z,3.40
2023-05-22T17:43:28.326Z,4.10
2023-05-22T17:45:55.966Z,5.20
2023-05-22T17:48:27.372Z,8.13
2023-05-22T17:50:55.696Z,5.00
2023-05-22T17:53:23.138Z,4.30
2023-05-22T17:55:52.618Z,6.68
2023-05-22T17:58:21.060Z,3.88
2023-05-22T18:00:49.209Z,4.25
2023-05-22T18:03:21.300Z,4.32
2023-05-22T18:05:50.601Z,6.57
2023-05-22T18:08:18.714Z,8.38
2023-05-22T18:10:46.363Z,8.70
2023-05-22T18:13:13.716Z,7.60
2023-05-22T18:15:41.592Z,4.93
2023-05-22T18:18:10.699Z,6.18
2023-05-22T18:20:39.932Z,4.95
2023-05-22T18:23:07.413Z,3.75
2023-05-22T18:25:35.022Z,4.55
2023-05-22T18:28:02.435Z,4.75
2023-05-22T18:30:30.410Z,5.75
2023-05-22T18:32:57.853Z,5.70
2023-05-22T18:35:25.598Z,3.97
2023-05-22T18:37:53.045Z,4.15
2023-05-22T18:40:20.814Z,6.18
2023-05-22T18:42:48.210Z,5.03
2023-05-22T18:45:15.933Z,6.90
2023-05-22T18:47:43.339Z,6.50
2023-05-22T18:50:12.217Z,7.47
2023-05-22T18:52:40.183Z,4.43
2023-05-22T18:55:08.771Z,3.97
2023-05-22T18:57:36.358Z,6.05
2023-05-22T19:00:04.625Z,7.75
2023-05-22T19:02:32.107Z,6.70
2023-05-22T19:04:59.926Z,6.57
2023-05-22T19:07:27.367Z,8.75
2023-05-22T19:09:54.912Z,4.63
2023-05-22T19:12:24.702Z,5.47
2023-05-22T19:14:52.642Z,6.03
2023-05-22T19:17:19.957Z,4.55
2023-05-22T19:19:47.794Z,4.53
2023-05-22T19:22:17.846Z,4.95
2023-05-22T19:24:45.689Z,5.75
2023-05-22T19:27:13.030Z,6.57
2023-05-22T19:29:40.599Z,4.95
2023-05-22T19:32:07.953Z,5.60
2023-05-22T19:34:35.618Z,5.38
2023-05-22T19:37:02.993Z,5.93
2023-05-22T19:39:30.604Z,6.10
2023-05-22T19:41:57.905Z,6.03
2023-05-22T19:44:25.712Z,9.85
2023-05-22T19:46:53.107Z,6.40
2023-05-22T19:49:20.741Z,10.55
2023-05-22T19:51:48.032Z,13.70
2023-05-22T19:54:15.763Z,5.75
2023-05-22T19:56:43.293Z,5.82
2023-05-22T19:59:11.242Z,6.20
2023-05-22T20:01:38.704Z,8.25
2023-05-22T20:04:06.387Z,7.82
2023-05-22T20:06:34.103Z,6.75
2023-05-22T20:09:01.958Z,5.40
2023-05-22T20:11:29.966Z,6.13
2023-05-22T20:13:57.566Z,7.82
2023-05-22T20:16:28.542Z,8.40
2023-05-22T20:18:57.129Z,8.02
2023-05-22T20:21:24.891Z,9.82
2023-05-22T20:23:53.028Z,10.38
2023-05-22T20:26:20.528Z,10.32
2023-05-22T20:28:48.149Z,8.90
2023-05-22T20:31:15.723Z,5.72
2023-05-22T20:33:43.376Z,8.30
2023-05-22T20:36:10.776Z,8.43
2023-05-22T20:38:38.350Z,5.28
2023-05-22T20:41:08.739Z,10.57
2023-05-22T20:43:37.485Z,7.60
2023-05-22T20:46:04.938Z,8.27
2023-05-22T20:48:32.516Z,8.75
2023-05-22T20:50:59.755Z,9.18
2023-05-22T20:53:27.460Z,6.63
2023-05-22T20:55:54.803Z,7.90
2023-05-22T20:58:23.146Z,8.52
2023-05-22T21:00:50.895Z,9.38
2023-05-22T21:03:18.594Z,10.48
2023-05-22T21:05:46.105Z,8.13
2023-05-22T21:08:13.766Z,12.77
2023-05-22T21:10:41.528Z,12.07
2023-05-22T21:13:09.379Z,13.05
2023-05-22T21:15:36.881Z,16.08
2023-05-22T21:18:04.598Z,8.50
2023-05-22T21:20:31.938Z,7.15
2023-05-22T21:22:59.500Z,9.13
2023-05-22T21:25:26.831Z,7.03
2023-05-22T21:27:55.048Z,10.10
2023-05-22T21:30:22.475Z,9.45
2023-05-22T21:32:50.265Z,8.48
2023-05-22T21:35:17.646Z,8.43
2023-05-22T21:37:47.483Z,11.98
2023-05-22T21:40:14.842Z,9.00
2023-05-22T21:42:47.013Z,9.52
2023-05-22T21:45:15.083Z,9.10
2023-05-22T21:47:42.664Z,7.65
2023-05-22T21:50:10.690Z,11.55
2023-05-22T21:52:38.322Z,12.43
2023-05-22T21:55:07.630Z,13.45
2023-05-22T21:57:35.267Z,7.82
2023-05-22T22:00:02.679Z,11.02
2023-05-22T22:02:30.293Z,13.07
2023-05-22T22:04:57.593Z,10.63
2023-05-22T22:07:26.007Z,13.27
2023-05-22T22:09:53.300Z,10.18
2023-05-22T22:12:21.023Z,10.68
2023-05-22T22:14:48.298Z,11.05
2023-05-22T22:17:17.465Z,12.18
2023-05-22T22:19:44.789Z,11.93
2023-05-22T22:22:18.627Z,10.80
2023-05-22T22:24:47.529Z,10.68
2023-05-22T22:27:15.812Z,12.52
2023-05-22T22:29:43.793Z,11.57
2023-05-22T22:32:12.988Z,9.93
2023-05-22T22:34:40.560Z,9.80
2023-05-22T22:37:08.319Z,11.15
2023-05-22T22:39:35.598Z,11.00
2023-05-22T22:42:05.877Z,10.18
2023-05-22T22:44:33.169Z,12.45
2023-05-22T22:47:02.273Z,11.23
2023-05-22T22:49:29.563Z,12.68
2023-05-22T22:51:57.695Z,11.02
2023-05-22T22:54:25.058Z,10.57
2023-05-22T22:56:52.855Z,12.48
2023-05-22T22:59:20.092Z,12.52
2023-05-22T23:01:47.828Z,10.40
2023-05-22T23:04:15.356Z,11.65
2023-05-22T23:06:43.039Z,11.63
2023-05-22T23:09:11.221Z,13.18
2023-05-22T23:11:39.248Z,12.07
2023-05-22T23:14:10.440Z,11.15
2023-05-22T23:16:42.616Z,10.80
2023-05-22T23:19:11.057Z,11.18
2023-05-22T23:21:38.750Z,9.80
2023-05-22T23:24:06.606Z,10.88
2023-05-22T23:26:34.491Z,10.98
2023-05-22T23:29:01.941Z,10.07
2023-05-22T23:31:32.805Z,8.90
2023-05-22T23:34:00.206Z,10.10
2023-05-22T23:36:27.789Z,9.88
2023-05-22T23:38:55.025Z,9.70
2023-05-22T23:41:24.556Z,10.45
2023-05-22T23:43:52.051Z,10.35
2023-05-22T23:46:21.294Z,10.13
2023-05-22T23:48:55.702Z,10.93
2023-05-22T23:51:23.257Z,9.25
2023-05-22T23:53:50.532Z,8.57
2023-05-22T23:56:18.097Z,9.60
2023-05-22T23:58:45.327Z,9.00
